sensor_id;sensor_type;location;lat;lon;timestamp;P1;durP1;ratioP1;P2;durP2;ratioP2
25946;SDS011;13745;51.470;9.894;2023-02-28T00:01:44;6.50;;;1.55;;
25946;SDS011;13745;51.470;9.894;2023-02-28T00:04:29;3.78;;;1.40;;
25946;SDS011;13745;51.470;9.894;2023-02-28T00:07:14;3.53;;;1.23;;
25946;SDS011;13745;51.470;9.894;2023-02-28T00:09:59;2.10;;;1.02;;
25946;SDS011;13745;51.470;9.894;2023-02-28T00:12:44;2.28;;;1.13;;
25946;SDS011;13745;51.470;9.894;2023-02-28T00:15:31;1.05;;;0.82;;
25946;SDS011;13745;51.470;9.894;2023-02-28T00:18:17;1.60;;;0.90;;
25946;SDS011;13745;51.470;9.894;2023-02-28T00:21:02;1.50;;;0.90;;
25946;SDS011;13745;51.470;9.894;2023-02-28T00:23:48;3.13;;;1.00;;
25946;SDS011;13745;51.470;9.894;2023-02-28T00:26:33;1.60;;;0.82;;
25946;SDS011;13745;51.470;9.894;2023-02-28T00:29:18;1.77;;;1.00;;
25946;SDS011;13745;51.470;9.894;2023-02-28T00:32:05;0.85;;;0.73;;
25946;SDS011;13745;51.470;9.894;2023-02-28T00:34:51;1.60;;;1.20;;
25946;SDS011;13745;51.470;9.894;2023-02-28T00:37:36;2.45;;;1.05;;
25946;SDS011;13745;51.470;9.894;2023-02-28T00:40:22;2.83;;;1.20;;
25946;SDS011;13745;51.470;9.894;2023-02-28T00:43:07;1.08;;;0.85;;
25946;SDS011;13745;51.470;9.894;2023-02-28T00:45:53;3.55;;;1.20;;
25946;SDS011;13745;51.470;9.894;2023-02-28T00:48:39;1.65;;;0.90;;
25946;SDS011;13745;51.470;9.894;2023-02-28T00:51:24;1.40;;;1.02;;
25946;SDS011;13745;51.470;9.894;2023-02-28T00:54:09;1.05;;;0.90;;
25946;SDS011;13745;51.470;9.894;2023-02-28T00:56:54;2.50;;;1.02;;
25946;SDS011;13745;51.470;9.894;2023-02-28T00:59:39;2.58;;;1.00;;
25946;SDS011;13745;51.470;9.894;2023-02-28T01:02:24;1.95;;;0.70;;
25946;SDS011;13745;51.470;9.894;2023-02-28T01:05:11;2.58;;;1.35;;
25946;SDS011;13745;51.470;9.894;2023-02-28T01:07:57;2.10;;;1.08;;
25946;SDS011;13745;51.470;9.894;2023-02-28T01:10:42;2.28;;;1.13;;
25946;SDS011;13745;51.470;9.894;2023-02-28T01:13:27;2.28;;;0.90;;
25946;SDS011;13745;51.470;9.894;2023-02-28T01:16:12;2.08;;;1.25;;
25946;SDS011;13745;51.470;9.894;2023-02-28T01:18:58;1.77;;;1.02;;
25946;SDS011;13745;51.470;9.894;2023-02-28T01:21:44;1.35;;;0.90;;
25946;SDS011;13745;51.470;9.894;2023-02-28T01:24:31;1.50;;;0.88;;
25946;SDS011;13745;51.470;9.894;2023-02-28T01:27:16;1.88;;;0.90;;
25946;SDS011;13745;51.470;9.894;2023-02-28T01:30:01;1.83;;;0.70;;
25946;SDS011;13745;51.470;9.894;2023-02-28T01:32:46;2.13;;;0.90;;
25946;SDS011;13745;51.470;9.894;2023-02-28T01:35:32;2.83;;;0.73;;
25946;SDS011;13745;51.470;9.894;2023-02-28T01:38:18;2.40;;;1.00;;
25946;SDS011;13745;51.470;9.894;2023-02-28T01:41:04;1.45;;;0.88;;
25946;SDS011;13745;51.470;9.894;2023-02-28T01:43:57;2.47;;;1.08;;
25946;SDS011;13745;51.470;9.894;2023-02-28T01:46:47;1.83;;;0.90;;
25946;SDS011;13745;51.470;9.894;2023-02-28T01:49:31;6.28;;;1.10;;
25946;SDS011;13745;51.470;9.894;2023-02-28T01:52:17;1.73;;;1.13;;
25946;SDS011;13745;51.470;9.894;2023-02-28T01:55:07;3.30;;;1.17;;
25946;SDS011;13745;51.470;9.894;2023-02-28T01:57:56;3.35;;;1.00;;
25946;SDS011;13745;51.470;9.894;2023-02-28T02:00:45;1.23;;;0.90;;
25946;SDS011;13745;51.470;9.894;2023-02-28T02:03:31;2.03;;;0.88;;
25946;SDS011;13745;51.470;9.894;2023-02-28T02:06:16;2.20;;;0.95;;
25946;SDS011;13745;51.470;9.894;2023-02-28T02:09:02;3.03;;;1.10;;
25946;SDS011;13745;51.470;9.894;2023-02-28T02:11:48;2.70;;;1.00;;
25946;SDS011;13745;51.470;9.894;2023-02-28T02:14:41;2.72;;;1.17;;
25946;SDS011;13745;51.470;9.894;2023-02-28T02:17:37;1.77;;;1.10;;
25946;SDS011;13745;51.470;9.894;2023-02-28T02:20:32;2.83;;;1.02;;
25946;SDS011;13745;51.470;9.894;2023-02-28T02:27:08;1.58;;;0.95;;
25946;SDS011;13745;51.470;9.894;2023-02-28T02:30:14;1.90;;;0.98;;
25946;SDS011;13745;51.470;9.894;2023-02-28T02:36:37;2.13;;;1.17;;
25946;SDS011;13745;51.470;9.894;2023-02-28T02:39:27;1.50;;;0.90;;
25946;SDS011;13745;51.470;9.894;2023-02-28T02:42:23;4.90;;;1.40;;
25946;SDS011;13745;51.470;9.894;2023-02-28T02:45:12;3.35;;;1.30;;
25946;SDS011;13745;51.470;9.894;2023-02-28T02:48:03;2.05;;;1.13;;
25946;SDS011;13745;51.470;9.894;2023-02-28T02:50:53;3.55;;;1.40;;
25946;SDS011;13745;51.470;9.894;2023-02-28T02:53:44;1.92;;;1.30;;
25946;SDS011;13745;51.470;9.894;2023-02-28T02:56:33;4.40;;;1.60;;
25946;SDS011;13745;51.470;9.894;2023-02-28T02:59:21;2.45;;;1.42;;
25946;SDS011;13745;51.470;9.894;2023-02-28T03:02:08;3.10;;;1.35;;
25946;SDS011;13745;51.470;9.894;2023-02-28T03:04:58;2.97;;;1.58;;
25946;SDS011;13745;51.470;9.894;2023-02-28T03:07:45;3.25;;;1.52;;
25946;SDS011;13745;51.470;9.894;2023-02-28T03:10:34;2.83;;;1.25;;
25946;SDS011;13745;51.470;9.894;2023-02-28T03:16:48;3.45;;;1.50;;
25946;SDS011;13745;51.470;9.894;2023-02-28T03:19:51;2.92;;;1.42;;
25946;SDS011;13745;51.470;9.894;2023-02-28T03:22:45;3.83;;;1.55;;
25946;SDS011;13745;51.470;9.894;2023-02-28T03:25:39;2.83;;;1.70;;
25946;SDS011;13745;51.470;9.894;2023-02-28T03:28:36;3.45;;;1.30;;
25946;SDS011;13745;51.470;9.894;2023-02-28T03:31:30;2.78;;;1.75;;
25946;SDS011;13745;51.470;9.894;2023-02-28T03:34:22;2.78;;;1.52;;
25946;SDS011;13745;51.470;9.894;2023-02-28T03:37:14;3.05;;;1.77;;
25946;SDS011;13745;51.470;9.894;2023-02-28T03:40:04;3.50;;;1.50;;
25946;SDS011;13745;51.470;9.894;2023-02-28T03:42:58;2.97;;;1.90;;
25946;SDS011;13745;51.470;9.894;2023-02-28T03:45:47;2.72;;;1.40;;
25946;SDS011;13745;51.470;9.894;2023-02-28T03:48:36;2.67;;;1.50;;
25946;SDS011;13745;51.470;9.894;2023-02-28T03:51:27;4.27;;;1.67;;
25946;SDS011;13745;51.470;9.894;2023-02-28T03:54:15;2.92;;;1.80;;
25946;SDS011;13745;51.470;9.894;2023-02-28T03:57:07;3.13;;;1.75;;
25946;SDS011;13745;51.470;9.894;2023-02-28T03:59:59;3.08;;;1.75;;
25946;SDS011;13745;51.470;9.894;2023-02-28T04:02:56;2.03;;;1.42;;
25946;SDS011;13745;51.470;9.894;2023-02-28T04:05:49;4.20;;;1.75;;
25946;SDS011;13745;51.470;9.894;2023-02-28T04:08:35;2.45;;;1.77;;
25946;SDS011;13745;51.470;9.894;2023-02-28T04:11:23;3.80;;;1.85;;
25946;SDS011;13745;51.470;9.894;2023-02-28T04:14:12;3.22;;;2.05;;
25946;SDS011;13745;51.470;9.894;2023-02-28T04:16:58;3.47;;;1.52;;
25946;SDS011;13745;51.470;9.894;2023-02-28T04:19:43;2.20;;;1.80;;
25946;SDS011;13745;51.470;9.894;2023-02-28T04:22:28;4.55;;;1.90;;
25946;SDS011;13745;51.470;9.894;2023-02-28T04:25:13;3.17;;;1.70;;
25946;SDS011;13745;51.470;9.894;2023-02-28T04:27:58;4.63;;;1.92;;
25946;SDS011;13745;51.470;9.894;2023-02-28T04:30:43;2.65;;;1.80;;
25946;SDS011;13745;51.470;9.894;2023-02-28T04:33:30;3.90;;;2.13;;
25946;SDS011;13745;51.470;9.894;2023-02-28T04:36:17;5.57;;;1.85;;
25946;SDS011;13745;51.470;9.894;2023-02-28T04:39:02;3.47;;;1.90;;
25946;SDS011;13745;51.470;9.894;2023-02-28T04:41:49;5.28;;;1.80;;
25946;SDS011;13745;51.470;9.894;2023-02-28T04:44:34;2.60;;;1.45;;
25946;SDS011;13745;51.470;9.894;2023-02-28T04:47:20;3.38;;;2.05;;
25946;SDS011;13745;51.470;9.894;2023-02-28T04:50:06;4.45;;;2.10;;
25946;SDS011;13745;51.470;9.894;2023-02-28T04:52:53;2.97;;;2.13;;
25946;SDS011;13745;51.470;9.894;2023-02-28T04:55:38;3.40;;;2.00;;
25946;SDS011;13745;51.470;9.894;2023-02-28T04:58:25;2.35;;;1.67;;
25946;SDS011;13745;51.470;9.894;2023-02-28T05:01:18;3.88;;;2.10;;
25946;SDS011;13745;51.470;9.894;2023-02-28T05:04:05;4.88;;;2.70;;
25946;SDS011;13745;51.470;9.894;2023-02-28T05:06:51;4.70;;;2.13;;
25946;SDS011;13745;51.470;9.894;2023-02-28T05:09:37;3.03;;;2.25;;
25946;SDS011;13745;51.470;9.894;2023-02-28T05:12:22;2.65;;;2.30;;
25946;SDS011;13745;51.470;9.894;2023-02-28T05:15:07;3.65;;;2.20;;
25946;SDS011;13745;51.470;9.894;2023-02-28T05:17:57;3.97;;;2.60;;
25946;SDS011;13745;51.470;9.894;2023-02-28T05:20:42;3.38;;;2.05;;
25946;SDS011;13745;51.470;9.894;2023-02-28T05:23:29;3.42;;;2.33;;
25946;SDS011;13745;51.470;9.894;2023-02-28T05:26:14;4.72;;;2.17;;
25946;SDS011;13745;51.470;9.894;2023-02-28T05:28:59;2.75;;;1.38;;
25946;SDS011;13745;51.470;9.894;2023-02-28T05:31:45;3.22;;;1.52;;
25946;SDS011;13745;51.470;9.894;2023-02-28T05:34:30;3.05;;;1.40;;
25946;SDS011;13745;51.470;9.894;2023-02-28T05:37:15;2.92;;;1.50;;
25946;SDS011;13745;51.470;9.894;2023-02-28T05:40:02;3.83;;;1.90;;
25946;SDS011;13745;51.470;9.894;2023-02-28T05:42:49;2.58;;;1.52;;
25946;SDS011;13745;51.470;9.894;2023-02-28T05:45:35;1.85;;;1.30;;
25946;SDS011;13745;51.470;9.894;2023-02-28T05:48:20;1.90;;;1.25;;
25946;SDS011;13745;51.470;9.894;2023-02-28T05:51:05;2.78;;;1.20;;
25946;SDS011;13745;51.470;9.894;2023-02-28T05:53:51;3.25;;;0.80;;
25946;SDS011;13745;51.470;9.894;2023-02-28T05:56:37;2.05;;;1.20;;
25946;SDS011;13745;51.470;9.894;2023-02-28T05:59:24;4.28;;;1.33;;
25946;SDS011;13745;51.470;9.894;2023-02-28T06:02:09;1.08;;;0.80;;
25946;SDS011;13745;51.470;9.894;2023-02-28T06:04:56;3.47;;;1.20;;
25946;SDS011;13745;51.470;9.894;2023-02-28T06:07:42;3.00;;;1.20;;
25946;SDS011;13745;51.470;9.894;2023-02-28T06:10:27;2.83;;;1.63;;
25946;SDS011;13745;51.470;9.894;2023-02-28T06:13:13;2.92;;;1.17;;
25946;SDS011;13745;51.470;9.894;2023-02-28T06:16:00;4.80;;;1.20;;
25946;SDS011;13745;51.470;9.894;2023-02-28T06:18:45;2.20;;;0.95;;
25946;SDS011;13745;51.470;9.894;2023-02-28T06:21:30;2.83;;;1.15;;
25946;SDS011;13745;51.470;9.894;2023-02-28T06:24:16;2.25;;;1.23;;
25946;SDS011;13745;51.470;9.894;2023-02-28T06:27:01;1.25;;;1.00;;
25946;SDS011;13745;51.470;9.894;2023-02-28T06:29:53;2.88;;;1.40;;
25946;SDS011;13745;51.470;9.894;2023-02-28T06:32:38;1.80;;;0.95;;
25946;SDS011;13745;51.470;9.894;2023-02-28T06:35:23;3.60;;;1.10;;
25946;SDS011;13745;51.470;9.894;2023-02-28T06:38:08;4.25;;;1.17;;
25946;SDS011;13745;51.470;9.894;2023-02-28T06:40:54;4.25;;;1.00;;
25946;SDS011;13745;51.470;9.894;2023-02-28T06:43:41;3.90;;;1.92;;
25946;SDS011;13745;51.470;9.894;2023-02-28T06:46:28;3.55;;;1.10;;
25946;SDS011;13745;51.470;9.894;2023-02-28T06:49:14;3.75;;;1.13;;
25946;SDS011;13745;51.470;9.894;2023-02-28T06:51:59;2.55;;;1.20;;
25946;SDS011;13745;51.470;9.894;2023-02-28T06:54:44;2.17;;;1.40;;
25946;SDS011;13745;51.470;9.894;2023-02-28T06:57:30;3.25;;;1.15;;
25946;SDS011;13745;51.470;9.894;2023-02-28T07:00:16;2.17;;;1.27;;
25946;SDS011;13745;51.470;9.894;2023-02-28T07:03:02;4.63;;;1.50;;
25946;SDS011;13745;51.470;9.894;2023-02-28T07:05:48;4.18;;;1.75;;
25946;SDS011;13745;51.470;9.894;2023-02-28T07:08:34;5.25;;;1.77;;
25946;SDS011;13745;51.470;9.894;2023-02-28T07:11:20;4.75;;;1.92;;
25946;SDS011;13745;51.470;9.894;2023-02-28T07:14:06;3.95;;;1.90;;
25946;SDS011;13745;51.470;9.894;2023-02-28T07:16:52;3.70;;;1.20;;
25946;SDS011;13745;51.470;9.894;2023-02-28T07:19:38;4.57;;;1.50;;
25946;SDS011;13745;51.470;9.894;2023-02-28T07:22:24;2.53;;;1.63;;
25946;SDS011;13745;51.470;9.894;2023-02-28T07:25:09;2.30;;;1.55;;
25946;SDS011;13745;51.470;9.894;2023-02-28T07:27:55;2.47;;;1.70;;
25946;SDS011;13745;51.470;9.894;2023-02-28T07:30:42;3.38;;;1.77;;
25946;SDS011;13745;51.470;9.894;2023-02-28T07:33:28;2.38;;;1.50;;
25946;SDS011;13745;51.470;9.894;2023-02-28T07:36:15;2.88;;;1.48;;
25946;SDS011;13745;51.470;9.894;2023-02-28T07:39:02;4.75;;;1.40;;
25946;SDS011;13745;51.470;9.894;2023-02-28T07:41:47;3.72;;;1.42;;
25946;SDS011;13745;51.470;9.894;2023-02-28T07:44:32;5.00;;;1.20;;
25946;SDS011;13745;51.470;9.894;2023-02-28T07:47:17;2.83;;;1.48;;
25946;SDS011;13745;51.470;9.894;2023-02-28T07:50:03;2.15;;;1.00;;
25946;SDS011;13745;51.470;9.894;2023-02-28T07:52:50;1.85;;;1.10;;
25946;SDS011;13745;51.470;9.894;2023-02-28T07:55:36;5.30;;;1.10;;
25946;SDS011;13745;51.470;9.894;2023-02-28T07:58:21;1.60;;;1.25;;
25946;SDS011;13745;51.470;9.894;2023-02-28T08:01:06;2.08;;;1.38;;
25946;SDS011;13745;51.470;9.894;2023-02-28T08:03:52;1.40;;;1.20;;
25946;SDS011;13745;51.470;9.894;2023-02-28T08:06:38;2.13;;;1.20;;
25946;SDS011;13745;51.470;9.894;2023-02-28T08:09:24;4.07;;;1.15;;
25946;SDS011;13745;51.470;9.894;2023-02-28T08:12:11;2.15;;;1.20;;
25946;SDS011;13745;51.470;9.894;2023-02-28T08:14:56;3.28;;;1.40;;
25946;SDS011;13745;51.470;9.894;2023-02-28T08:17:41;1.90;;;1.30;;
25946;SDS011;13745;51.470;9.894;2023-02-28T08:20:26;3.65;;;1.50;;
25946;SDS011;13745;51.470;9.894;2023-02-28T08:23:12;2.53;;;1.63;;
25946;SDS011;13745;51.470;9.894;2023-02-28T08:25:59;3.05;;;1.40;;
25946;SDS011;13745;51.470;9.894;2023-02-28T08:28:44;3.45;;;2.33;;
25946;SDS011;13745;51.470;9.894;2023-02-28T08:31:32;2.63;;;1.92;;
25946;SDS011;13745;51.470;9.894;2023-02-28T08:34:18;6.15;;;3.05;;
25946;SDS011;13745;51.470;9.894;2023-02-28T08:37:04;3.70;;;2.33;;
25946;SDS011;13745;51.470;9.894;2023-02-28T08:39:49;2.15;;;1.83;;
25946;SDS011;13745;51.470;9.894;2023-02-28T08:42:35;3.28;;;2.10;;
25946;SDS011;13745;51.470;9.894;2023-02-28T08:45:21;3.08;;;1.80;;
25946;SDS011;13745;51.470;9.894;2023-02-28T08:48:06;3.42;;;1.67;;
25946;SDS011;13745;51.470;9.894;2023-02-28T08:50:54;3.30;;;1.95;;
25946;SDS011;13745;51.470;9.894;2023-02-28T08:53:40;3.63;;;2.00;;
25946;SDS011;13745;51.470;9.894;2023-02-28T08:56:26;2.97;;;2.05;;
25946;SDS011;13745;51.470;9.894;2023-02-28T08:59:13;3.28;;;2.00;;
25946;SDS011;13745;51.470;9.894;2023-02-28T09:01:58;5.63;;;1.88;;
25946;SDS011;13745;51.470;9.894;2023-02-28T09:04:43;2.53;;;1.70;;
25946;SDS011;13745;51.470;9.894;2023-02-28T09:07:29;2.50;;;1.63;;
25946;SDS011;13745;51.470;9.894;2023-02-28T09:10:14;2.95;;;1.65;;
25946;SDS011;13745;51.470;9.894;2023-02-28T09:12:58;4.80;;;3.63;;
25946;SDS011;13745;51.470;9.894;2023-02-28T09:15:45;13.95;;;7.63;;
25946;SDS011;13745;51.470;9.894;2023-02-28T09:29:32;5.90;;;3.80;;
25946;SDS011;13745;51.470;9.894;2023-02-28T09:32:19;4.63;;;3.38;;
25946;SDS011;13745;51.470;9.894;2023-02-28T09:35:05;3.58;;;2.00;;
25946;SDS011;13745;51.470;9.894;2023-02-28T09:37:56;2.45;;;2.10;;
25946;SDS011;13745;51.470;9.894;2023-02-28T09:40:46;4.72;;;1.90;;
25946;SDS011;13745;51.470;9.894;2023-02-28T09:43:35;1.60;;;1.40;;
25946;SDS011;13745;51.470;9.894;2023-02-28T09:46:27;2.45;;;1.60;;
25946;SDS011;13745;51.470;9.894;2023-02-28T09:49:18;2.33;;;1.70;;
25946;SDS011;13745;51.470;9.894;2023-02-28T09:52:09;3.05;;;1.52;;
25946;SDS011;13745;51.470;9.894;2023-02-28T09:54:58;2.05;;;1.30;;
25946;SDS011;13745;51.470;9.894;2023-02-28T09:58:03;2.00;;;1.50;;
25946;SDS011;13745;51.470;9.894;2023-02-28T10:00:53;3.70;;;1.77;;
25946;SDS011;13745;51.470;9.894;2023-02-28T10:03:44;2.42;;;1.50;;
25946;SDS011;13745;51.470;9.894;2023-02-28T10:06:38;1.80;;;1.60;;
25946;SDS011;13745;51.470;9.894;2023-02-28T10:09:29;1.80;;;1.60;;
25946;SDS011;13745;51.470;9.894;2023-02-28T10:12:17;2.38;;;1.92;;
25946;SDS011;13745;51.470;9.894;2023-02-28T10:15:04;3.88;;;2.33;;
25946;SDS011;13745;51.470;9.894;2023-02-28T10:17:53;1.90;;;1.58;;
25946;SDS011;13745;51.470;9.894;2023-02-28T10:20:40;2.70;;;1.83;;
25946;SDS011;13745;51.470;9.894;2023-02-28T10:23:31;2.72;;;1.80;;
25946;SDS011;13745;51.470;9.894;2023-02-28T10:34:34;2.55;;;1.95;;
25946;SDS011;13745;51.470;9.894;2023-02-28T10:37:19;4.57;;;1.85;;
25946;SDS011;13745;51.470;9.894;2023-02-28T10:40:07;2.00;;;1.73;;
25946;SDS011;13745;51.470;9.894;2023-02-28T10:43:21;15.07;;;9.30;;
25946;SDS011;13745;51.470;9.894;2023-02-28T10:46:13;4.28;;;3.35;;
25946;SDS011;13745;51.470;9.894;2023-02-28T10:49:13;2.50;;;1.83;;
25946;SDS011;13745;51.470;9.894;2023-02-28T10:52:01;2.17;;;1.70;;
25946;SDS011;13745;51.470;9.894;2023-02-28T10:54:47;1.85;;;1.73;;
25946;SDS011;13745;51.470;9.894;2023-02-28T10:57:33;2.67;;;1.70;;
25946;SDS011;13745;51.470;9.894;2023-02-28T11:00:19;2.08;;;1.85;;
25946;SDS011;13745;51.470;9.894;2023-02-28T11:03:09;4.13;;;2.05;;
25946;SDS011;13745;51.470;9.894;2023-02-28T11:06:13;1.67;;;1.58;;
25946;SDS011;13745;51.470;9.894;2023-02-28T11:09:02;2.85;;;1.80;;
25946;SDS011;13745;51.470;9.894;2023-02-28T11:11:50;1.52;;;1.42;;
25946;SDS011;13745;51.470;9.894;2023-02-28T11:14:39;1.77;;;1.67;;
25946;SDS011;13745;51.470;9.894;2023-02-28T11:17:33;2.55;;;1.90;;
25946;SDS011;13745;51.470;9.894;2023-02-28T11:20:20;2.33;;;1.98;;
25946;SDS011;13745;51.470;9.894;2023-02-28T11:23:10;1.67;;;1.55;;
25946;SDS011;13745;51.470;9.894;2023-02-28T11:25:59;1.70;;;1.58;;
25946;SDS011;13745;51.470;9.894;2023-02-28T11:28:46;2.20;;;2.00;;
25946;SDS011;13745;51.470;9.894;2023-02-28T11:31:32;1.75;;;1.65;;
25946;SDS011;13745;51.470;9.894;2023-02-28T11:34:23;2.30;;;1.88;;
25946;SDS011;13745;51.470;9.894;2023-02-28T11:37:11;2.13;;;1.80;;
25946;SDS011;13745;51.470;9.894;2023-02-28T11:39:59;1.92;;;1.73;;
25946;SDS011;13745;51.470;9.894;2023-02-28T11:42:47;2.58;;;1.60;;
25946;SDS011;13745;51.470;9.894;2023-02-28T11:45:47;2.00;;;1.80;;
25946;SDS011;13745;51.470;9.894;2023-02-28T11:48:47;1.95;;;1.77;;
25946;SDS011;13745;51.470;9.894;2023-02-28T11:51:46;2.25;;;1.77;;
25946;SDS011;13745;51.470;9.894;2023-02-28T11:54:38;2.30;;;2.10;;
25946;SDS011;13745;51.470;9.894;2023-02-28T11:57:36;2.83;;;2.10;;
25946;SDS011;13745;51.470;9.894;2023-02-28T12:00:45;2.07;;;1.90;;
25946;SDS011;13745;51.470;9.894;2023-02-28T12:03:43;2.95;;;1.98;;
25946;SDS011;13745;51.470;9.894;2023-02-28T12:06:38;3.60;;;1.80;;
25946;SDS011;13745;51.470;9.894;2023-02-28T12:09:37;2.42;;;2.10;;
25946;SDS011;13745;51.470;9.894;2023-02-28T12:12:34;2.35;;;2.15;;
25946;SDS011;13745;51.470;9.894;2023-02-28T12:18:42;2.08;;;1.88;;
25946;SDS011;13745;51.470;9.894;2023-02-28T12:21:45;2.50;;;2.30;;
25946;SDS011;13745;51.470;9.894;2023-02-28T12:24:45;2.10;;;1.85;;
25946;SDS011;13745;51.470;9.894;2023-02-28T12:27:40;2.10;;;1.90;;
25946;SDS011;13745;51.470;9.894;2023-02-28T12:30:28;2.55;;;2.20;;
25946;SDS011;13745;51.470;9.894;2023-02-28T12:33:16;3.03;;;2.20;;
25946;SDS011;13745;51.470;9.894;2023-02-28T12:36:05;2.20;;;2.00;;
25946;SDS011;13745;51.470;9.894;2023-02-28T12:38:59;2.15;;;1.98;;
25946;SDS011;13745;51.470;9.894;2023-02-28T12:41:50;3.53;;;2.42;;
25946;SDS011;13745;51.470;9.894;2023-02-28T12:44:40;3.33;;;2.50;;
25946;SDS011;13745;51.470;9.894;2023-02-28T12:50:15;2.40;;;2.10;;
25946;SDS011;13745;51.470;9.894;2023-02-28T12:53:02;2.00;;;1.90;;
25946;SDS011;13745;51.470;9.894;2023-02-28T12:55:54;6.10;;;2.15;;
25946;SDS011;13745;51.470;9.894;2023-02-28T12:58:48;2.40;;;2.17;;
25946;SDS011;13745;51.470;9.894;2023-02-28T13:01:42;3.97;;;2.30;;
25946;SDS011;13745;51.470;9.894;2023-02-28T13:04:42;3.95;;;2.40;;
25946;SDS011;13745;51.470;9.894;2023-02-28T13:07:57;2.72;;;2.50;;
25946;SDS011;13745;51.470;9.894;2023-02-28T13:11:05;2.47;;;2.22;;
25946;SDS011;13745;51.470;9.894;2023-02-28T13:13:55;2.90;;;2.10;;
25946;SDS011;13745;51.470;9.894;2023-02-28T13:16:54;2.78;;;2.40;;
25946;SDS011;13745;51.470;9.894;2023-02-28T13:19:44;1.88;;;1.70;;
25946;SDS011;13745;51.470;9.894;2023-02-28T13:22:39;2.72;;;1.90;;
25946;SDS011;13745;51.470;9.894;2023-02-28T13:32:19;2.65;;;2.15;;
25946;SDS011;13745;51.470;9.894;2023-02-28T13:38:33;3.22;;;2.28;;
25946;SDS011;13745;51.470;9.894;2023-02-28T13:41:43;2.88;;;2.40;;
25946;SDS011;13745;51.470;9.894;2023-02-28T13:44:29;2.40;;;2.20;;
25946;SDS011;13745;51.470;9.894;2023-02-28T13:47:23;2.72;;;2.20;;
25946;SDS011;13745;51.470;9.894;2023-02-28T13:50:20;2.60;;;2.00;;
25946;SDS011;13745;51.470;9.894;2023-02-28T13:53:18;3.30;;;2.97;;
25946;SDS011;13745;51.470;9.894;2023-02-28T14:02:03;3.60;;;2.30;;
25946;SDS011;13745;51.470;9.894;2023-02-28T14:05:12;2.97;;;2.38;;
25946;SDS011;13745;51.470;9.894;2023-02-28T14:08:02;3.42;;;2.80;;
25946;SDS011;13745;51.470;9.894;2023-02-28T14:22:14;4.22;;;3.15;;
25946;SDS011;13745;51.470;9.894;2023-02-28T14:25:08;3.25;;;2.95;;
25946;SDS011;13745;51.470;9.894;2023-02-28T14:28:04;5.28;;;3.33;;
25946;SDS011;13745;51.470;9.894;2023-02-28T14:31:00;4.82;;;3.42;;
25946;SDS011;13745;51.470;9.894;2023-02-28T14:33:57;3.17;;;2.63;;
25946;SDS011;13745;51.470;9.894;2023-02-28T14:36:50;4.18;;;2.25;;
25946;SDS011;13745;51.470;9.894;2023-02-28T14:42:29;3.63;;;2.80;;
25946;SDS011;13745;51.470;9.894;2023-02-28T14:45:17;3.10;;;2.80;;
25946;SDS011;13745;51.470;9.894;2023-02-28T14:53:40;4.40;;;3.20;;
25946;SDS011;13745;51.470;9.894;2023-02-28T14:56:27;4.80;;;3.20;;
25946;SDS011;13745;51.470;9.894;2023-02-28T14:59:28;5.63;;;3.65;;
25946;SDS011;13745;51.470;9.894;2023-02-28T15:02:19;5.00;;;3.55;;
25946;SDS011;13745;51.470;9.894;2023-02-28T15:08:16;4.05;;;3.30;;
25946;SDS011;13745;51.470;9.894;2023-02-28T15:11:04;5.13;;;3.42;;
25946;SDS011;13745;51.470;9.894;2023-02-28T15:13:54;4.45;;;3.75;;
25946;SDS011;13745;51.470;9.894;2023-02-28T15:16:40;4.60;;;3.72;;
25946;SDS011;13745;51.470;9.894;2023-02-28T15:19:28;4.72;;;3.60;;
25946;SDS011;13745;51.470;9.894;2023-02-28T15:22:15;4.20;;;3.13;;
25946;SDS011;13745;51.470;9.894;2023-02-28T15:25:04;4.65;;;3.83;;
25946;SDS011;13745;51.470;9.894;2023-02-28T15:27:52;5.70;;;3.97;;
25946;SDS011;13745;51.470;9.894;2023-02-28T15:30:49;5.57;;;3.90;;
25946;SDS011;13745;51.470;9.894;2023-02-28T15:33:36;5.32;;;3.67;;
25946;SDS011;13745;51.470;9.894;2023-02-28T15:36:23;6.57;;;3.60;;
25946;SDS011;13745;51.470;9.894;2023-02-28T15:39:18;5.57;;;3.50;;
25946;SDS011;13745;51.470;9.894;2023-02-28T15:42:11;7.93;;;3.53;;
25946;SDS011;13745;51.470;9.894;2023-02-28T15:44:57;9.30;;;4.30;;
25946;SDS011;13745;51.470;9.894;2023-02-28T15:47:45;4.45;;;3.65;;
25946;SDS011;13745;51.470;9.894;2023-02-28T15:50:31;6.43;;;3.92;;
25946;SDS011;13745;51.470;9.894;2023-02-28T15:53:17;5.30;;;3.78;;
25946;SDS011;13745;51.470;9.894;2023-02-28T15:56:06;6.50;;;4.40;;
25946;SDS011;13745;51.470;9.894;2023-02-28T15:59:06;7.47;;;4.55;;
25946;SDS011;13745;51.470;9.894;2023-02-28T16:05:01;5.40;;;4.07;;
25946;SDS011;13745;51.470;9.894;2023-02-28T16:08:10;5.35;;;4.28;;
25946;SDS011;13745;51.470;9.894;2023-02-28T16:10:58;4.80;;;3.88;;
25946;SDS011;13745;51.470;9.894;2023-02-28T16:13:43;8.25;;;4.65;;
25946;SDS011;13745;51.470;9.894;2023-02-28T16:16:28;5.45;;;4.03;;
25946;SDS011;13745;51.470;9.894;2023-02-28T16:19:13;6.40;;;4.20;;
25946;SDS011;13745;51.470;9.894;2023-02-28T16:22:00;5.80;;;4.40;;
25946;SDS011;13745;51.470;9.894;2023-02-28T16:24:45;5.20;;;4.03;;
25946;SDS011;13745;51.470;9.894;2023-02-28T16:27:31;6.00;;;4.07;;
25946;SDS011;13745;51.470;9.894;2023-02-28T16:30:21;6.47;;;3.92;;
25946;SDS011;13745;51.470;9.894;2023-02-28T16:33:08;5.40;;;3.97;;
25946;SDS011;13745;51.470;9.894;2023-02-28T16:35:53;6.15;;;4.00;;
25946;SDS011;13745;51.470;9.894;2023-02-28T16:38:40;7.45;;;4.38;;
25946;SDS011;13745;51.470;9.894;2023-02-28T16:41:26;6.60;;;4.05;;
25946;SDS011;13745;51.470;9.894;2023-02-28T16:44:14;6.10;;;4.40;;
25946;SDS011;13745;51.470;9.894;2023-02-28T16:47:10;9.40;;;4.60;;
25946;SDS011;13745;51.470;9.894;2023-02-28T16:49:55;5.22;;;3.90;;
25946;SDS011;13745;51.470;9.894;2023-02-28T16:52:40;5.93;;;4.40;;
25946;SDS011;13745;51.470;9.894;2023-02-28T16:55:26;4.93;;;4.20;;
25946;SDS011;13745;51.470;9.894;2023-02-28T16:58:13;8.43;;;4.65;;
25946;SDS011;13745;51.470;9.894;2023-02-28T17:01:00;7.35;;;4.63;;
25946;SDS011;13745;51.470;9.894;2023-02-28T17:03:45;5.20;;;4.70;;
25946;SDS011;13745;51.470;9.894;2023-02-28T17:06:30;8.15;;;4.70;;
25946;SDS011;13745;51.470;9.894;2023-02-28T17:09:16;5.60;;;4.10;;
25946;SDS011;13745;51.470;9.894;2023-02-28T17:12:05;7.32;;;5.15;;
25946;SDS011;13745;51.470;9.894;2023-02-28T17:14:51;8.02;;;4.43;;
25946;SDS011;13745;51.470;9.894;2023-02-28T17:17:36;7.35;;;4.15;;
25946;SDS011;13745;51.470;9.894;2023-02-28T17:20:22;5.25;;;4.07;;
25946;SDS011;13745;51.470;9.894;2023-02-28T17:23:07;5.32;;;3.65;;
25946;SDS011;13745;51.470;9.894;2023-02-28T17:25:52;4.70;;;4.18;;
25946;SDS011;13745;51.470;9.894;2023-02-28T17:28:39;9.88;;;4.90;;
25946;SDS011;13745;51.470;9.894;2023-02-28T17:31:25;6.25;;;4.32;;
25946;SDS011;13745;51.470;9.894;2023-02-28T17:34:11;7.13;;;4.40;;
25946;SDS011;13745;51.470;9.894;2023-02-28T17:37:01;6.57;;;3.97;;
25946;SDS011;13745;51.470;9.894;2023-02-28T17:39:47;8.77;;;4.57;;
25946;SDS011;13745;51.470;9.894;2023-02-28T17:42:32;6.07;;;4.30;;
25946;SDS011;13745;51.470;9.894;2023-02-28T17:45:19;7.25;;;5.63;;
25946;SDS011;13745;51.470;9.894;2023-02-28T17:48:04;6.15;;;4.55;;
25946;SDS011;13745;51.470;9.894;2023-02-28T17:50:50;7.32;;;4.95;;
25946;SDS011;13745;51.470;9.894;2023-02-28T17:53:36;5.95;;;3.80;;
25946;SDS011;13745;51.470;9.894;2023-02-28T17:56:21;7.25;;;4.55;;
25946;SDS011;13745;51.470;9.894;2023-02-28T17:59:08;7.63;;;4.50;;
25946;SDS011;13745;51.470;9.894;2023-02-28T18:01:55;5.10;;;4.43;;
25946;SDS011;13745;51.470;9.894;2023-02-28T18:04:40;8.20;;;5.22;;
25946;SDS011;13745;51.470;9.894;2023-02-28T18:07:26;6.93;;;4.88;;
25946;SDS011;13745;51.470;9.894;2023-02-28T18:10:12;8.32;;;5.50;;
25946;SDS011;13745;51.470;9.894;2023-02-28T18:13:03;6.80;;;5.32;;
25946;SDS011;13745;51.470;9.894;2023-02-28T18:15:48;7.47;;;5.72;;